Time;durP1;ratioP1;P1;durP2;ratioP2;P2;SDS_P1;SDS_P2;PMS_P1;PMS_P2;Temp;Humidity;BMP_temperature;BMP_pressure;BME280_temperature;BME280_humidity;BME280_pressure;Samples;Min_cycle;Max_cycle;Signal;HPM_P1;HPM_P2
2023/06/04 00:01:33;;;;;;;2.75;1.17;;;;;;;;;;8254811;28;20047;-73
2023/06/04 00:05:33;;;;;;;2.73;1.20;;;;;;;;;;8284849;28;20087;-73
2023/06/04 00:09:33;;;;;;;3.42;1.10;;;;;;;;;;8281750;28;20534;-73
2023/06/04 00:13:34;;;;;;;1.38;0.90;;;;;;;;;;8280138;28;20030;-73
2023/06/04 00:17:34;;;;;;;1.00;1.00;;;;;;;;;;8267670;28;20123;-73
2023/06/04 00:21:35;;;;;;;1.85;1.10;;;;;;;;;;8280168;28;20112;-73
2023/06/04 00:25:36;;;;;;;1.20;1.02;;;;;;;;;;8280644;28;20029;-73
2023/06/04 00:29:36;;;;;;;2.88;1.10;;;;;;;;;;8285184;28;20028;-73
2023/06/04 00:33:36;;;;;;;2.45;1.00;;;;;;;;;;8287548;28;20029;-73
2023/06/04 00:37:36;;;;;;;3.53;0.95;;;;;;;;;;8266644;28;21024;-73
2023/06/04 00:41:36;;;;;;;3.30;1.02;;;;;;;;;;8282552;28;20120;-73
2023/06/04 00:45:37;;;;;;;2.40;1.10;;;;;;;;;;8265432;28;20042;-73
2023/06/04 00:49:37;;;;;;;1.02;0.90;;;;;;;;;;8282585;28;20033;-73
2023/06/04 00:53:37;;;;;;;4.20;1.20;;;;;;;;;;8281523;28;20377;-73
2023/06/04 00:57:37;;;;;;;3.35;1.23;;;;;;;;;;8283834;28;20026;-73
2023/06/04 01:01:42;;;;;;;1.10;1.00;;;;;;;;;;8280190;28;20068;-73
2023/06/04 01:05:57;;;;;;;0.90;0.90;;;;;;;;;;8282715;28;20033;-73
2023/06/04 01:09:57;;;;;;;1.50;0.90;;;;;;;;;;8286457;28;20847;-73
2023/06/04 01:13:57;;;;;;;2.80;1.00;;;;;;;;;;8280187;28;20655;-73
2023/06/04 01:18:02;;;;;;;2.63;0.97;;;;;;;;;;8280964;28;20155;-73
2023/06/04 01:22:10;;;;;;;2.58;0.90;;;;;;;;;;8287781;28;20035;-73
2023/06/04 01:26:11;;;;;;;5.93;1.10;;;;;;;;;;8286854;28;20029;-73
2023/06/04 01:30:12;;;;;;;2.03;1.17;;;;;;;;;;8285798;28;20670;-73
2023/06/04 01:34:12;;;;;;;2.75;1.08;;;;;;;;;;8287360;28;20028;-73
2023/06/04 01:38:12;;;;;;;5.53;1.05;;;;;;;;;;8287597;28;20028;-73
2023/06/04 01:42:12;;;;;;;3.15;0.90;;;;;;;;;;8285861;28;20081;-73
2023/06/04 01:46:12;;;;;;;3.63;1.30;;;;;;;;;;8287567;28;20041;-73
2023/06/04 01:50:13;;;;;;;2.63;0.90;;;;;;;;;;8294687;28;20124;-73
2023/06/04 01:54:13;;;;;;;2.10;1.00;;;;;;;;;;8288843;28;20030;-73
2023/06/04 01:58:13;;;;;;;1.70;1.13;;;;;;;;;;8271429;28;20101;-73
2023/06/04 02:02:14;;;;;;;1.77;1.10;;;;;;;;;;8284764;28;20104;-73
2023/06/04 02:10:52;;;;;;;4.35;1.00;;;;;;;;;;8277629;28;20032;-73
2023/06/04 02:14:52;;;;;;;6.93;1.10;;;;;;;;;;8283035;28;20013;-73
2023/06/04 02:18:52;;;;;;;1.58;1.00;;;;;;;;;;8285878;28;20042;-73
2023/06/04 02:22:53;;;;;;;1.88;1.00;;;;;;;;;;8284306;28;20102;-73
2023/06/04 02:26:53;;;;;;;0.80;0.80;;;;;;;;;;8287410;28;20032;-72
2023/06/04 02:30:54;;;;;;;1.17;1.02;;;;;;;;;;8268948;28;20043;-73
2023/06/04 02:34:55;;;;;;;1.10;0.90;;;;;;;;;;8283584;28;20033;-72
2023/06/04 02:38:55;;;;;;;2.67;1.20;;;;;;;;;;8285700;28;20029;-73
2023/06/04 02:42:56;;;;;;;3.97;1.00;;;;;;;;;;8287735;28;20460;-73
2023/06/04 02:46:56;;;;;;;1.00;0.90;;;;;;;;;;8285608;28;21277;-73
2023/06/04 02:50:57;;;;;;;1.15;0.90;;;;;;;;;;8282796;28;20040;-72
2023/06/04 02:54:57;;;;;;;1.98;1.00;;;;;;;;;;8285295;28;20073;-72
2023/06/04 02:58:57;;;;;;;2.22;0.93;;;;;;;;;;8269074;28;20108;-72
2023/06/04 03:03:01;;;;;;;2.40;1.00;;;;;;;;;;8266533;28;20037;-73
2023/06/04 03:07:02;;;;;;;3.25;1.20;;;;;;;;;;8266331;28;20033;-73
2023/06/04 03:11:02;;;;;;;3.20;0.90;;;;;;;;;;8289046;28;20037;-73
2023/06/04 03:15:03;;;;;;;1.33;1.00;;;;;;;;;;8284361;28;20036;-73
2023/06/04 03:19:03;;;;;;;1.42;1.15;;;;;;;;;;8285275;28;20030;-73
2023/06/04 03:23:03;;;;;;;2.38;0.90;;;;;;;;;;8282570;28;20034;-72
2023/06/04 03:27:04;;;;;;;1.30;1.00;;;;;;;;;;8267899;28;20775;-73
2023/06/04 03:31:05;;;;;;;3.95;1.00;;;;;;;;;;8283241;28;20045;-72
2023/06/04 03:35:05;;;;;;;5.68;1.05;;;;;;;;;;8285385;28;20034;-73
2023/06/04 03:39:05;;;;;;;2.58;1.00;;;;;;;;;;8284238;28;20120;-72
2023/06/04 03:43:06;;;;;;;1.50;0.88;;;;;;;;;;8268005;28;20025;-73
2023/06/04 03:47:06;;;;;;;3.30;1.00;;;;;;;;;;8256516;28;20033;-73
2023/06/04 03:51:06;;;;;;;1.83;1.08;;;;;;;;;;8280375;28;20033;-72
2023/06/04 03:55:07;;;;;;;1.67;0.93;;;;;;;;;;8283404;28;20033;-73
2023/06/04 03:59:07;;;;;;;4.43;0.90;;;;;;;;;;8282734;28;20083;-72
2023/06/04 04:03:09;;;;;;;3.63;1.10;;;;;;;;;;8264051;28;20042;-72
2023/06/04 04:07:10;;;;;;;3.50;1.00;;;;;;;;;;8282684;28;20286;-73
2023/06/04 04:11:11;;;;;;;6.32;1.20;;;;;;;;;;8282894;28;20024;-73
2023/06/04 04:15:12;;;;;;;2.28;1.10;;;;;;;;;;8282364;28;20025;-73
2023/06/04 04:19:13;;;;;;;2.15;1.00;;;;;;;;;;8286682;28;20092;-73
2023/06/04 04:23:13;;;;;;;2.13;0.95;;;;;;;;;;8282279;28;20029;-73
2023/06/04 04:27:15;;;;;;;1.63;1.00;;;;;;;;;;8266728;28;20025;-73
2023/06/04 04:31:17;;;;;;;2.08;1.00;;;;;;;;;;8282111;28;20350;-73
2023/06/04 04:35:18;;;;;;;1.35;1.10;;;;;;;;;;8265247;28;20034;-73
2023/06/04 04:39:23;;;;;;;3.67;1.10;;;;;;;;;;8266864;28;20969;-73
2023/06/04 04:43:30;;;;;;;2.17;1.10;;;;;;;;;;8281759;28;20020;-73
2023/06/04 04:47:30;;;;;;;1.85;1.20;;;;;;;;;;8281407;28;20048;-73
2023/06/04 04:51:30;;;;;;;2.08;1.10;;;;;;;;;;8266748;28;20026;-73
2023/06/04 04:55:30;;;;;;;4.40;1.40;;;;;;;;;;8286913;28;20044;-74
2023/06/04 04:59:30;;;;;;;5.80;1.40;;;;;;;;;;8271362;28;20026;-73
2023/06/04 05:03:31;;;;;;;1.60;1.10;;;;;;;;;;8287254;28;20040;-73
2023/06/04 05:07:31;;;;;;;3.45;1.15;;;;;;;;;;8271077;28;20057;-72
2023/06/04 05:11:31;;;;;;;2.67;1.10;;;;;;;;;;8289407;28;20033;-73
2023/06/04 05:15:31;;;;;;;2.53;1.27;;;;;;;;;;8269770;28;20082;-73
2023/06/04 05:19:32;;;;;;;1.90;1.33;;;;;;;;;;8289271;28;20037;-73
2023/06/04 05:23:34;;;;;;;3.58;1.23;;;;;;;;;;8288792;28;20036;-72
2023/06/04 05:27:35;;;;;;;1.20;1.10;;;;;;;;;;8289119;28;20170;-73
2023/06/04 05:31:36;;;;;;;6.50;1.25;;;;;;;;;;8286769;28;20107;-72
2023/06/04 05:35:41;;;;;;;3.20;1.30;;;;;;;;;;8272556;28;20064;-72
2023/06/04 05:39:41;;;;;;;4.45;1.23;;;;;;;;;;8270494;28;20634;-72
2023/06/04 05:43:44;;;;;;;1.98;1.20;;;;;;;;;;8272179;28;20096;-73
2023/06/04 05:47:44;;;;;;;2.00;1.20;;;;;;;;;;8287165;28;20042;-72
2023/06/04 05:51:44;;;;;;;2.17;1.23;;;;;;;;;;8290688;28;20280;-73
2023/06/04 05:55:45;;;;;;;1.40;1.13;;;;;;;;;;8271307;28;20793;-72
2023/06/04 05:59:45;;;;;;;2.53;1.30;;;;;;;;;;8267476;28;20056;-73
2023/06/04 06:03:46;;;;;;;2.42;1.25;;;;;;;;;;8271955;28;20097;-72
2023/06/04 06:07:46;;;;;;;2.92;1.10;;;;;;;;;;8293450;28;20029;-73
2023/06/04 06:11:46;;;;;;;2.30;1.20;;;;;;;;;;8288315;28;20132;-73
2023/06/04 06:15:49;;;;;;;4.03;1.27;;;;;;;;;;8265861;28;20029;-72
2023/06/04 06:19:49;;;;;;;2.80;1.27;;;;;;;;;;8286272;28;20024;-73
2023/06/04 06:23:50;;;;;;;1.70;1.20;;;;;;;;;;8285649;28;20030;-73
2023/06/04 06:27:51;;;;;;;3.05;1.40;;;;;;;;;;8284411;28;20021;-73
2023/06/04 06:31:51;;;;;;;1.20;1.10;;;;;;;;;;8270550;28;20123;-73
2023/06/04 06:35:51;;;;;;;1.40;1.20;;;;;;;;;;8287760;28;20498;-73
2023/06/04 06:39:51;;;;;;;3.35;1.30;;;;;;;;;;8285158;28;20672;-73
2023/06/04 06:43:51;;;;;;;3.60;1.40;;;;;;;;;;8285317;28;20645;-73
2023/06/04 06:47:52;;;;;;;2.72;1.38;;;;;;;;;;8285196;28;20029;-72
2023/06/04 06:51:52;;;;;;;3.60;1.20;;;;;;;;;;8283186;28;20434;-73
2023/06/04 06:55:52;;;;;;;3.42;1.30;;;;;;;;;;8285142;28;20021;-73
2023/06/04 06:59:53;;;;;;;1.55;1.10;;;;;;;;;;8267921;28;20963;-75
2023/06/04 07:03:54;;;;;;;1.98;1.40;;;;;;;;;;8268472;28;20038;-75
2023/06/04 07:07:54;;;;;;;2.55;1.40;;;;;;;;;;8288149;28;20036;-75
2023/06/04 07:11:54;;;;;;;3.30;1.10;;;;;;;;;;8297699;28;20025;-73
2023/06/04 07:15:54;;;;;;;1.92;1.23;;;;;;;;;;8269767;28;20268;-73
2023/06/04 07:19:55;;;;;;;4.88;1.17;;;;;;;;;;8282312;28;20033;-73
2023/06/04 07:23:55;;;;;;;3.72;1.17;;;;;;;;;;8261507;28;20032;-73
2023/06/04 07:27:57;;;;;;;5.78;1.52;;;;;;;;;;8284664;28;20021;-72
2023/06/04 07:31:58;;;;;;;2.17;1.30;;;;;;;;;;8262200;28;20045;-72
2023/06/04 07:35:58;;;;;;;1.25;1.10;;;;;;;;;;8279976;28;20039;-72
2023/06/04 07:39:58;;;;;;;3.00;1.10;;;;;;;;;;8279639;28;20021;-73
2023/06/04 07:43:58;;;;;;;6.20;1.23;;;;;;;;;;8264528;28;20140;-73
2023/06/04 07:47:58;;;;;;;4.43;1.30;;;;;;;;;;8284083;28;20046;-73
2023/06/04 07:51:59;;;;;;;1.90;1.10;;;;;;;;;;8264573;28;20149;-72
2023/06/04 07:55:59;;;;;;;7.43;2.40;;;;;;;;;;8276213;28;22150;-73
2023/06/04 07:59:59;;;;;;;7.03;2.50;;;;;;;;;;8272054;28;20912;-73
2023/06/04 08:04:00;;;;;;;5.50;1.70;;;;;;;;;;8278643;28;20104;-72
2023/06/04 08:08:01;;;;;;;3.78;1.75;;;;;;;;;;8275207;28;20033;-73
2023/06/04 08:12:01;;;;;;;4.53;1.48;;;;;;;;;;8280665;28;20036;-73
2023/06/04 08:16:01;;;;;;;5.82;1.70;;;;;;;;;;8282114;28;20029;-73
2023/06/04 08:20:01;;;;;;;8.05;3.28;;;;;;;;;;8271506;28;20981;-73
2023/06/04 08:24:02;;;;;;;4.93;1.60;;;;;;;;;;8279350;28;20021;-73
2023/06/04 08:28:02;;;;;;;3.38;1.30;;;;;;;;;;8275564;28;21269;-73
2023/06/04 08:32:03;;;;;;;3.38;1.30;;;;;;;;;;8273286;28;20577;-73
2023/06/04 08:36:04;;;;;;;7.85;1.50;;;;;;;;;;8268984;28;20816;-72
2023/06/04 08:40:06;;;;;;;2.97;1.50;;;;;;;;;;8289894;28;20246;-76
2023/06/04 08:44:06;;;;;;;2.97;1.43;;;;;;;;;;8285388;28;20032;-72
2023/06/04 08:48:09;;;;;;;5.30;1.30;;;;;;;;;;8284089;28;20042;-73
2023/06/04 08:52:10;;;;;;;4.15;1.10;;;;;;;;;;8283629;28;20025;-73
2023/06/04 08:56:10;;;;;;;1.33;1.23;;;;;;;;;;8285065;28;20026;-74
2023/06/04 09:00:12;;;;;;;3.20;1.40;;;;;;;;;;8278920;28;21137;-73
2023/06/04 09:04:12;;;;;;;5.03;1.43;;;;;;;;;;8266043;28;20029;-73
2023/06/04 09:08:14;;;;;;;2.23;1.30;;;;;;;;;;8290009;28;20052;-73
2023/06/04 09:12:20;;;;;;;3.42;1.20;;;;;;;;;;8302226;28;20029;-73
2023/06/04 09:16:20;;;;;;;1.30;1.20;;;;;;;;;;8298325;28;20033;-73
2023/06/04 09:20:21;;;;;;;2.25;1.10;;;;;;;;;;8334301;28;20016;-74
2023/06/04 09:24:22;;;;;;;1.77;1.30;;;;;;;;;;8319420;28;20021;-74
2023/06/04 09:28:22;;;;;;;2.83;1.05;;;;;;;;;;8339270;28;20073;-72
2023/06/04 09:32:23;;;;;;;1.33;1.10;;;;;;;;;;8347885;28;20064;-75
2023/06/04 09:36:29;;;;;;;2.60;1.25;;;;;;;;;;8325342;28;20053;-72
2023/06/04 09:40:37;;;;;;;1.55;1.23;;;;;;;;;;8321600;28;20049;-73
2023/06/04 09:44:46;;;;;;;2.13;1.25;;;;;;;;;;8323151;28;20018;-75
2023/06/04 09:48:46;;;;;;;2.55;1.30;;;;;;;;;;8334518;28;20034;-73
2023/06/04 09:52:47;;;;;;;1.90;1.20;;;;;;;;;;8332149;28;20021;-74
2023/06/04 09:56:48;;;;;;;1.03;1.00;;;;;;;;;;8328821;28;20036;-74
2023/06/04 10:00:48;;;;;;;2.47;1.20;;;;;;;;;;8341395;28;20041;-74
2023/06/04 10:04:53;;;;;;;2.33;1.20;;;;;;;;;;8323252;28;20149;-76
2023/06/04 10:08:55;;;;;;;2.25;1.30;;;;;;;;;;8337373;28;20016;-74
2023/06/04 10:13:06;;;;;;;5.55;1.20;;;;;;;;;;8333535;28;20014;-74
2023/06/04 10:17:08;;;;;;;1.40;1.30;;;;;;;;;;8330131;28;20068;-74
2023/06/04 10:21:09;;;;;;;2.28;1.30;;;;;;;;;;8315968;28;20025;-74
2023/06/04 10:25:10;;;;;;;1.77;1.38;;;;;;;;;;8313440;28;20044;-74
2023/06/04 10:29:11;;;;;;;1.17;1.00;;;;;;;;;;8303473;28;20037;-74
2023/06/04 10:33:12;;;;;;;4.20;1.57;;;;;;;;;;8317071;28;20037;-73
2023/06/04 10:37:20;;;;;;;2.90;1.13;;;;;;;;;;8328587;28;20013;-74
2023/06/04 10:41:21;;;;;;;2.90;2.55;;;;;;;;;;8324975;28;20037;-71
2023/06/04 10:45:28;;;;;;;3.42;2.00;;;;;;;;;;8318752;28;20033;-73
2023/06/04 10:49:29;;;;;;;4.50;2.60;;;;;;;;;;8325417;28;20716;-76
2023/06/04 10:53:36;;;;;;;3.95;1.35;;;;;;;;;;8313227;28;20654;-75
2023/06/04 10:57:36;;;;;;;2.75;1.20;;;;;;;;;;8293990;28;20020;-74
2023/06/04 11:01:36;;;;;;;1.30;1.20;;;;;;;;;;8329157;28;20032;-75
2023/06/04 11:05:37;;;;;;;2.45;1.20;;;;;;;;;;8319138;28;20592;-75
2023/06/04 11:09:47;;;;;;;1.40;1.20;;;;;;;;;;8331702;28;20097;-77
2023/06/04 11:13:54;;;;;;;1.85;1.13;;;;;;;;;;8339471;28;20009;-76
2023/06/04 11:17:58;;;;;;;2.13;1.33;;;;;;;;;;8319353;28;20076;-74
2023/06/04 11:22:02;;;;;;;1.75;1.20;;;;;;;;;;8342313;28;20234;-77
2023/06/04 11:26:02;;;;;;;3.15;1.20;;;;;;;;;;8340983;28;20030;-76
2023/06/04 11:30:11;;;;;;;6.43;1.40;;;;;;;;;;8345893;28;20033;-75
2023/06/04 11:34:28;;;;;;;2.13;1.40;;;;;;;;;;8328835;28;20029;-73
2023/06/04 11:38:28;;;;;;;4.50;1.40;;;;;;;;;;8343895;28;20019;-75
2023/06/04 11:42:30;;;;;;;3.70;1.38;;;;;;;;;;8326924;28;20013;-76
2023/06/04 11:46:33;;;;;;;1.85;1.20;;;;;;;;;;8342280;28;20106;-76
2023/06/04 11:50:33;;;;;;;3.92;1.38;;;;;;;;;;8332386;28;20022;-74
2023/06/04 11:54:38;;;;;;;2.47;1.17;;;;;;;;;;8328349;28;20021;-73
2023/06/04 11:58:40;;;;;;;3.60;1.25;;;;;;;;;;8318820;28;20283;-75
2023/06/04 12:03:00;;;;;;;2.40;1.17;;;;;;;;;;8338001;28;20037;-76
2023/06/04 12:07:05;;;;;;;1.83;1.45;;;;;;;;;;8351081;28;20029;-73
2023/06/04 12:11:26;;;;;;;1.30;1.20;;;;;;;;;;8337248;28;20258;-77
2023/06/04 12:15:26;;;;;;;4.00;1.38;;;;;;;;;;8348342;28;20037;-74
2023/06/04 12:19:48;;;;;;;2.58;1.50;;;;;;;;;;8357796;28;20036;-76
2023/06/04 12:23:51;;;;;;;2.60;1.30;;;;;;;;;;8347399;28;20016;-74
2023/06/04 12:28:16;;;;;;;2.97;1.63;;;;;;;;;;8352505;28;20066;-74
2023/06/04 12:32:16;;;;;;;1.52;1.42;;;;;;;;;;8327697;28;21070;-74
2023/06/04 12:36:17;;;;;;;2.60;1.40;;;;;;;;;;8343448;28;20025;-73
2023/06/04 12:40:17;;;;;;;3.50;1.35;;;;;;;;;;8332516;28;20014;-76
2023/06/04 12:44:17;;;;;;;2.13;1.53;;;;;;;;;;8341637;28;20490;-73
2023/06/04 12:48:17;;;;;;;2.33;1.45;;;;;;;;;;8323663;28;20245;-73
2023/06/04 12:52:28;;;;;;;3.35;1.48;;;;;;;;;;8347214;28;20025;-75
2023/06/04 12:56:28;;;;;;;1.85;1.30;;;;;;;;;;8338641;28;20032;-74
2023/06/04 13:00:31;;;;;;;2.72;1.33;;;;;;;;;;8343515;28;20070;-78
2023/06/04 13:04:31;;;;;;;3.38;1.67;;;;;;;;;;8346076;28;20037;-75
2023/06/04 13:08:33;;;;;;;1.40;1.30;;;;;;;;;;8314254;28;20057;-77
2023/06/04 13:12:33;;;;;;;1.52;1.42;;;;;;;;;;8346409;28;20029;-75
2023/06/04 13:16:40;;;;;;;2.03;1.35;;;;;;;;;;8363199;28;20034;-75
2023/06/04 13:20:41;;;;;;;4.10;1.20;;;;;;;;;;8369770;28;20072;-77
2023/06/04 13:24:42;;;;;;;2.80;1.45;;;;;;;;;;8343899;28;20025;-77
2023/06/04 13:28:44;;;;;;;5.60;1.50;;;;;;;;;;8363403;28;20077;-79
2023/06/04 13:32:44;;;;;;;2.75;1.45;;;;;;;;;;8339039;28;20013;-74
2023/06/04 13:36:45;;;;;;;2.88;1.23;;;;;;;;;;8351121;28;20118;-80
2023/06/04 13:40:46;;;;;;;4.07;1.40;;;;;;;;;;8371606;28;20040;-75
2023/06/04 13:44:47;;;;;;;1.73;1.30;;;;;;;;;;8345328;28;20021;-75
2023/06/04 13:48:54;;;;;;;4.73;1.63;;;;;;;;;;8342189;28;20262;-80
2023/06/04 13:52:55;;;;;;;2.40;1.35;;;;;;;;;;8365702;28;20021;-78
2023/06/04 13:57:03;;;;;;;6.50;1.50;;;;;;;;;;8349487;28;20034;-75
2023/06/04 14:01:04;;;;;;;3.33;1.25;;;;;;;;;;8348635;28;20045;-74
2023/06/04 14:05:04;;;;;;;1.50;1.30;;;;;;;;;;8352851;22;20106;-65
2023/06/04 14:09:09;;;;;;;2.70;1.60;;;;;;;;;;8320550;28;20034;-62
2023/06/04 14:13:09;;;;;;;4.50;1.35;;;;;;;;;;8320514;28;20601;-62
2023/06/04 14:17:09;;;;;;;4.40;1.47;;;;;;;;;;8317240;28;20097;-65
2023/06/04 14:21:09;;;;;;;2.20;1.38;;;;;;;;;;8299546;28;20287;-62
2023/06/04 14:25:10;;;;;;;4.20;1.40;;;;;;;;;;8327346;28;20518;-65
2023/06/04 14:29:10;;;;;;;4.07;1.40;;;;;;;;;;8314034;28;20391;-65
2023/06/04 14:33:10;;;;;;;4.73;1.60;;;;;;;;;;8322727;28;20041;-66
2023/06/04 14:37:11;;;;;;;3.90;1.40;;;;;;;;;;8334382;28;20270;-66
2023/06/04 14:41:11;;;;;;;2.47;1.40;;;;;;;;;;8335659;28;20127;-66
2023/06/04 14:45:11;;;;;;;6.40;1.30;;;;;;;;;;8336718;28;20139;-65
2023/06/04 14:49:11;;;;;;;3.80;1.40;;;;;;;;;;8337169;28;20021;-65
2023/06/04 14:53:11;;;;;;;2.28;1.30;;;;;;;;;;8337765;28;20548;-66
2023/06/04 14:57:14;;;;;;;3.00;1.50;;;;;;;;;;8329361;28;20121;-65
2023/06/04 15:01:16;;;;;;;2.00;1.40;;;;;;;;;;8329410;28;20099;-66
2023/06/04 15:05:16;;;;;;;7.43;1.67;;;;;;;;;;8330200;28;20029;-65
2023/06/04 15:09:16;;;;;;;2.95;1.35;;;;;;;;;;8327505;28;20440;-66
2023/06/04 15:13:16;;;;;;;2.33;1.13;;;;;;;;;;8330094;28;20381;-65
2023/06/04 15:17:16;;;;;;;3.13;1.50;;;;;;;;;;8326175;28;20830;-69
2023/06/04 15:21:17;;;;;;;2.38;1.50;;;;;;;;;;8329748;28;20020;-65
2023/06/04 15:25:17;;;;;;;1.98;1.60;;;;;;;;;;8326743;28;20102;-63
2023/06/04 15:29:17;;;;;;;2.55;1.30;;;;;;;;;;8327971;28;20573;-62
2023/06/04 15:33:17;;;;;;;2.80;1.42;;;;;;;;;;8324984;28;20044;-64
2023/06/04 15:37:18;;;;;;;3.10;1.40;;;;;;;;;;8332277;28;20032;-65
2023/06/04 15:41:19;;;;;;;1.43;1.30;;;;;;;;;;8331731;28;20037;-64
2023/06/04 15:45:24;;;;;;;3.25;1.50;;;;;;;;;;8328655;28;20504;-65
2023/06/04 15:49:24;;;;;;;1.58;1.17;;;;;;;;;;8329219;28;20040;-69
2023/06/04 15:53:24;;;;;;;1.67;1.30;;;;;;;;;;8330277;28;20021;-64
2023/06/04 15:57:25;;;;;;;1.60;1.30;;;;;;;;;;8328704;28;20272;-65
2023/06/04 16:01:25;;;;;;;7.03;1.70;;;;;;;;;;8325445;28;20555;-65
2023/06/04 16:05:27;;;;;;;2.50;1.50;;;;;;;;;;8323700;28;20287;-64
2023/06/04 16:09:28;;;;;;;2.40;1.50;;;;;;;;;;8332214;28;20033;-64
2023/06/04 16:13:29;;;;;;;4.47;1.42;;;;;;;;;;8334781;28;20087;-63
2023/06/04 16:17:29;;;;;;;1.70;1.60;;;;;;;;;;8332268;28;20075;-64
2023/06/04 16:21:30;;;;;;;2.42;1.60;;;;;;;;;;8330893;28;20032;-65
2023/06/04 16:25:30;;;;;;;2.97;1.50;;;;;;;;;;8326046;28;20188;-62
2023/06/04 16:29:30;;;;;;;3.07;1.40;;;;;;;;;;8329631;28;20649;-65
2023/06/04 16:33:30;;;;;;;1.90;1.43;;;;;;;;;;8333999;28;20090;-66
2023/06/04 16:37:31;;;;;;;2.00;1.45;;;;;;;;;;8314555;28;20052;-64
2023/06/04 16:41:31;;;;;;;2.03;1.48;;;;;;;;;;8322657;28;20036;-63
2023/06/04 16:45:31;;;;;;;4.63;1.40;;;;;;;;;;8314488;28;20508;-64
2023/06/04 16:49:32;;;;;;;1.40;1.30;;;;;;;;;;8318364;28;20443;-64
2023/06/04 16:53:32;;;;;;;2.65;1.38;;;;;;;;;;8318477;28;20533;-63
2023/06/04 16:57:32;;;;;;;1.43;1.27;;;;;;;;;;8326498;28;20021;-64
2023/06/04 17:01:34;;;;;;;2.95;1.45;;;;;;;;;;8323715;28;20044;-63
2023/06/04 17:05:34;;;;;;;3.80;1.52;;;;;;;;;;8327944;28;20033;-64
2023/06/04 17:09:34;;;;;;;5.53;1.40;;;;;;;;;;8317952;28;20043;-64
2023/06/04 17:13:35;;;;;;;1.40;1.30;;;;;;;;;;8322585;28;20147;-63
2023/06/04 17:17:35;;;;;;;3.55;1.25;;;;;;;;;;8321058;28;20198;-63
2023/06/04 17:21:35;;;;;;;4.78;1.50;;;;;;;;;;8320701;28;20355;-62
2023/06/04 17:25:36;;;;;;;3.80;1.83;;;;;;;;;;8319909;28;20017;-64
2023/06/04 17:29:36;;;;;;;3.00;1.42;;;;;;;;;;8316748;28;20074;-63
2023/06/04 17:33:36;;;;;;;3.07;1.30;;;;;;;;;;8315387;28;20048;-64
2023/06/04 17:37:36;;;;;;;1.98;1.40;;;;;;;;;;8315736;28;20754;-63
2023/06/04 17:41:36;;;;;;;1.80;1.50;;;;;;;;;;8312007;28;20805;-63
2023/06/04 17:45:37;;;;;;;1.42;1.20;;;;;;;;;;8311102;28;20646;-64
2023/06/04 17:49:37;;;;;;;3.15;1.30;;;;;;;;;;8315733;28;20024;-63
2023/06/04 17:53:37;;;;;;;2.88;1.30;;;;;;;;;;8313375;28;20394;-63
2023/06/04 17:57:37;;;;;;;1.33;1.08;;;;;;;;;;8313323;28;20079;-63
2023/06/04 18:01:37;;;;;;;1.58;1.40;;;;;;;;;;8313649;28;20040;-63
2023/06/04 18:05:37;;;;;;;2.75;1.50;;;;;;;;;;8309389;28;20110;-63
2023/06/04 18:09:38;;;;;;;1.88;1.35;;;;;;;;;;8308190;28;20911;-63
2023/06/04 18:13:38;;;;;;;2.45;1.30;;;;;;;;;;8302920;28;20306;-63
2023/06/04 18:17:38;;;;;;;1.55;1.42;;;;;;;;;;8311292;28;20150;-63
2023/06/04 18:21:38;;;;;;;2.75;1.50;;;;;;;;;;8312986;28;20461;-63
2023/06/04 18:25:38;;;;;;;3.45;1.40;;;;;;;;;;8310868;28;20990;-63
2023/06/04 18:29:39;;;;;;;2.85;1.50;;;;;;;;;;8313613;28;20109;-63
2023/06/04 18:33:49;;;;;;;2.97;1.60;;;;;;;;;;8308678;28;20036;-63
2023/06/04 18:37:49;;;;;;;2.88;1.70;;;;;;;;;;8299662;28;20692;-63
2023/06/04 18:41:52;;;;;;;2.90;1.55;;;;;;;;;;8309735;28;20056;-63
2023/06/04 18:45:52;;;;;;;1.60;1.50;;;;;;;;;;8307008;28;20068;-63
2023/06/04 18:49:52;;;;;;;3.85;1.80;;;;;;;;;;8312137;28;20021;-64
2023/06/04 18:53:52;;;;;;;4.80;1.90;;;;;;;;;;8308005;28;20049;-63
2023/06/04 18:57:53;;;;;;;2.63;1.90;;;;;;;;;;8310106;28;20319;-63
2023/06/04 19:01:54;;;;;;;2.40;1.80;;;;;;;;;;8311403;28;20665;-63
2023/06/04 19:05:54;;;;;;;3.53;1.75;;;;;;;;;;8307946;28;20490;-63
2023/06/04 19:09:56;;;;;;;2.47;1.90;;;;;;;;;;8308410;28;20429;-63
2023/06/04 19:13:56;;;;;;;3.35;1.85;;;;;;;;;;8310123;28;20743;-63
2023/06/04 19:17:57;;;;;;;2.97;2.10;;;;;;;;;;8311262;28;20379;-63
2023/06/04 19:21:58;;;;;;;4.40;2.70;;;;;;;;;;8311816;28;20103;-64
2023/06/04 19:25:58;;;;;;;2.58;2.20;;;;;;;;;;8310519;28;20028;-64
2023/06/04 19:29:58;;;;;;;3.15;2.20;;;;;;;;;;8308227;28;20735;-63
2023/06/04 19:33:58;;;;;;;4.63;2.30;;;;;;;;;;8310508;28;20028;-63
2023/06/04 19:37:59;;;;;;;3.00;2.20;;;;;;;;;;8308676;28;20026;-63
2023/06/04 19:41:59;;;;;;;4.60;2.00;;;;;;;;;;8312054;28;20515;-63
2023/06/04 19:46:01;;;;;;;3.78;2.22;;;;;;;;;;8307318;28;20272;-63
2023/06/04 19:50:01;;;;;;;2.30;2.10;;;;;;;;;;8310325;28;20139;-63
2023/06/04 19:54:02;;;;;;;2.33;2.00;;;;;;;;;;8292644;28;20055;-63
2023/06/04 19:58:02;;;;;;;1.95;1.80;;;;;;;;;;8307736;28;20113;-63
2023/06/04 20:02:02;;;;;;;2.55;1.92;;;;;;;;;;8290078;28;20567;-63
2023/06/04 20:06:04;;;;;;;2.15;1.80;;;;;;;;;;8307977;28;20564;-63
2023/06/04 20:10:04;;;;;;;3.92;1.90;;;;;;;;;;8308082;28;20138;-63
2023/06/04 20:14:05;;;;;;;5.03;1.80;;;;;;;;;;8306389;28;20164;-59
2023/06/04 20:18:06;;;;;;;6.47;1.80;;;;;;;;;;8311567;28;20372;-64
2023/06/04 20:22:08;;;;;;;2.95;1.70;;;;;;;;;;8304277;28;20511;-64
2023/06/04 20:26:08;;;;;;;1.45;1.33;;;;;;;;;;8308623;28;20025;-64
2023/06/04 20:30:09;;;;;;;2.33;1.50;;;;;;;;;;8311423;28;20111;-63
2023/06/04 20:34:09;;;;;;;6.55;1.95;;;;;;;;;;8310188;28;20018;-63
2023/06/04 20:38:09;;;;;;;3.70;1.65;;;;;;;;;;8309967;28;20017;-64
2023/06/04 20:42:10;;;;;;;1.53;1.43;;;;;;;;;;8306243;28;20025;-63
2023/06/04 20:46:10;;;;;;;1.63;1.50;;;;;;;;;;8308820;28;20044;-63
2023/06/04 20:50:10;;;;;;;1.42;1.30;;;;;;;;;;8308282;28;20141;-64
2023/06/04 20:54:11;;;;;;;4.22;1.40;;;;;;;;;;8304424;28;20028;-64
2023/06/04 20:58:11;;;;;;;1.77;1.48;;;;;;;;;;8306169;28;20025;-63
2023/06/04 21:02:11;;;;;;;3.47;1.48;;;;;;;;;;8307896;28;20029;-63
2023/06/04 21:06:11;;;;;;;2.35;1.40;;;;;;;;;;8305779;28;20025;-63
2023/06/04 21:10:11;;;;;;;1.48;1.38;;;;;;;;;;8305673;28;20036;-63
2023/06/04 21:14:11;;;;;;;3.58;1.40;;;;;;;;;;8302081;28;20959;-63
2023/06/04 21:18:13;;;;;;;6.38;1.40;;;;;;;;;;8308962;28;20033;-63
2023/06/04 21:22:13;;;;;;;1.65;1.40;;;;;;;;;;8312874;28;20575;-63
2023/06/04 21:26:13;;;;;;;3.10;1.40;;;;;;;;;;8313262;28;20037;-63
2023/06/04 21:30:14;;;;;;;1.63;1.40;;;;;;;;;;8314268;28;20031;-64
2023/06/04 21:34:14;;;;;;;1.67;1.23;;;;;;;;;;8297824;28;20064;-63
2023/06/04 21:38:14;;;;;;;2.20;1.40;;;;;;;;;;8319177;28;20032;-63
2023/06/04 21:42:15;;;;;;;5.00;1.40;;;;;;;;;;8314160;28;20310;-64
2023/06/04 21:46:15;;;;;;;2.13;1.60;;;;;;;;;;8317127;28;20059;-63
2023/06/04 21:50:16;;;;;;;2.60;1.20;;;;;;;;;;8315993;28;20031;-63
2023/06/04 21:54:16;;;;;;;1.67;1.20;;;;;;;;;;8314664;28;20074;-63
2023/06/04 21:58:19;;;;;;;1.23;1.10;;;;;;;;;;8315748;28;20834;-63
2023/06/04 22:02:19;;;;;;;1.60;1.45;;;;;;;;;;8315638;28;20045;-63
2023/06/04 22:06:19;;;;;;;2.20;1.23;;;;;;;;;;8314313;28;20021;-63
2023/06/04 22:10:20;;;;;;;2.47;1.25;;;;;;;;;;8316147;28;20032;-63
2023/06/04 22:14:20;;;;;;;4.07;1.42;;;;;;;;;;8317095;28;20127;-63
2023/06/04 22:18:21;;;;;;;1.30;1.20;;;;;;;;;;8315112;28;20029;-63
2023/06/04 22:22:21;;;;;;;1.80;1.27;;;;;;;;;;8320111;28;20135;-63
2023/06/04 22:26:21;;;;;;;1.73;1.13;;;;;;;;;;8319422;28;20287;-63
2023/06/04 22:30:22;;;;;;;3.03;1.30;;;;;;;;;;8318923;28;20155;-63
2023/06/04 22:34:22;;;;;;;1.23;1.13;;;;;;;;;;8314589;28;21302;-63
2023/06/04 22:38:23;;;;;;;1.30;1.20;;;;;;;;;;8318877;28;20025;-63
2023/06/04 22:42:23;;;;;;;1.30;1.20;;;;;;;;;;8317591;28;20040;-63
2023/06/04 22:46:24;;;;;;;3.50;1.43;;;;;;;;;;8314057;28;20037;-63
2023/06/04 22:50:24;;;;;;;1.10;1.10;;;;;;;;;;8316399;28;20071;-63
2023/06/04 22:54:24;;;;;;;7.57;1.40;;;;;;;;;;8320957;28;20056;-63
2023/06/04 22:58:25;;;;;;;3.97;1.23;;;;;;;;;;8318357;28;20220;-63
2023/06/04 23:02:25;;;;;;;2.60;1.38;;;;;;;;;;8321995;28;20052;-64
2023/06/04 23:06:26;;;;;;;4.63;1.33;;;;;;;;;;8315367;28;20032;-62
2023/06/04 23:10:26;;;;;;;2.90;1.40;;;;;;;;;;8318907;28;20109;-63
2023/06/04 23:14:26;;;;;;;1.70;1.50;;;;;;;;;;8316069;28;20024;-63
2023/06/04 23:18:26;;;;;;;1.30;1.20;;;;;;;;;;8318318;28;20962;-63
2023/06/04 23:22:27;;;;;;;2.13;1.42;;;;;;;;;;8319573;28;20033;-62
2023/06/04 23:26:27;;;;;;;2.03;1.05;;;;;;;;;;8318936;28;20527;-63
2023/06/04 23:30:27;;;;;;;1.42;1.33;;;;;;;;;;8317874;28;20124;-63
2023/06/04 23:34:27;;;;;;;1.50;1.23;;;;;;;;;;8318659;28;20031;-63
2023/06/04 23:38:27;;;;;;;1.87;1.10;;;;;;;;;;8318618;28;20029;-63
2023/06/04 23:42:28;;;;;;;1.55;1.38;;;;;;;;;;8316226;28;20278;-63
2023/06/04 23:46:28;;;;;;;1.85;1.35;;;;;;;;;;8311554;28;20126;-63
2023/06/04 23:50:28;;;;;;;1.23;1.05;;;;;;;;;;8317439;28;20037;-63
2023/06/04 23:54:28;;;;;;;2.75;1.00;;;;;;;;;;8318267;28;20532;-63
2023/06/04 23:58:28;;;;;;;1.35;1.20;;;;;;;;;;8313478;28;20131;-63
